sensor_id;sensor_type;location;lat;lon;timestamp;temperature;humidity
17172;DHT22;8701;50.150;8.756;2023-04-06T00:03:28;6.00;87.20
17172;DHT22;8701;50.150;8.756;2023-04-06T00:07:31;5.90;88.10
17172;DHT22;8701;50.150;8.756;2023-04-06T00:11:34;5.70;90.70
17172;DHT22;8701;50.150;8.756;2023-04-06T00:15:36;5.70;91.90
17172;DHT22;8701;50.150;8.756;2023-04-06T00:19:40;5.80;92.00
17172;DHT22;8701;50.150;8.756;2023-04-06T00:23:42;5.70;91.00
17172;DHT22;8701;50.150;8.756;2023-04-06T00:27:45;5.70;91.10
17172;DHT22;8701;50.150;8.756;2023-04-06T00:31:47;5.60;92.30
17172;DHT22;8701;50.150;8.756;2023-04-06T00:35:51;5.60;91.90
17172;DHT22;8701;50.150;8.756;2023-04-06T00:39:53;5.40;92.90
17172;DHT22;8701;50.150;8.756;2023-04-06T00:43:56;5.60;92.00
17172;DHT22;8701;50.150;8.756;2023-04-06T00:47:59;5.50;92.20
17172;DHT22;8701;50.150;8.756;2023-04-06T00:52:04;5.60;92.70
17172;DHT22;8701;50.150;8.756;2023-04-06T00:56:06;5.50;94.80
17172;DHT22;8701;50.150;8.756;2023-04-06T01:00:21;5.50;95.70
17172;DHT22;8701;50.150;8.756;2023-04-06T01:04:29;5.50;95.50
17172;DHT22;8701;50.150;8.756;2023-04-06T01:08:34;5.40;96.20
17172;DHT22;8701;50.150;8.756;2023-04-06T01:12:50;5.20;97.40
17172;DHT22;8701;50.150;8.756;2023-04-06T01:17:02;5.20;98.70
17172;DHT22;8701;50.150;8.756;2023-04-06T01:21:08;5.10;98.40
17172;DHT22;8701;50.150;8.756;2023-04-06T01:25:19;5.00;98.00
17172;DHT22;8701;50.150;8.756;2023-04-06T01:29:39;5.00;99.90
17172;DHT22;8701;50.150;8.756;2023-04-06T01:33:44;4.90;99.90
17172;DHT22;8701;50.150;8.756;2023-04-06T01:37:50;4.80;99.90
17172;DHT22;8701;50.150;8.756;2023-04-06T01:42:01;4.80;99.90
17172;DHT22;8701;50.150;8.756;2023-04-06T01:46:05;4.60;99.90
17172;DHT22;8701;50.150;8.756;2023-04-06T01:50:11;4.50;99.90
17172;DHT22;8701;50.150;8.756;2023-04-06T01:54:20;4.50;99.90
17172;DHT22;8701;50.150;8.756;2023-04-06T01:58:32;4.50;99.90
17172;DHT22;8701;50.150;8.756;2023-04-06T02:02:36;4.50;99.90
17172;DHT22;8701;50.150;8.756;2023-04-06T02:06:43;4.50;99.90
17172;DHT22;8701;50.150;8.756;2023-04-06T02:10:48;4.60;99.90
17172;DHT22;8701;50.150;8.756;2023-04-06T02:15:03;4.50;99.90
17172;DHT22;8701;50.150;8.756;2023-04-06T02:19:05;4.40;99.90
17172;DHT22;8701;50.150;8.756;2023-04-06T02:23:08;4.40;99.90
17172;DHT22;8701;50.150;8.756;2023-04-06T02:27:11;4.40;99.90
17172;DHT22;8701;50.150;8.756;2023-04-06T02:31:15;4.50;99.90
17172;DHT22;8701;50.150;8.756;2023-04-06T02:35:19;4.40;99.90
17172;DHT22;8701;50.150;8.756;2023-04-06T02:39:26;4.40;99.90
17172;DHT22;8701;50.150;8.756;2023-04-06T02:43:30;4.60;99.90
17172;DHT22;8701;50.150;8.756;2023-04-06T02:47:41;4.20;99.90
17172;DHT22;8701;50.150;8.756;2023-04-06T02:51:45;4.10;99.90
17172;DHT22;8701;50.150;8.756;2023-04-06T02:55:59;4.20;99.90
17172;DHT22;8701;50.150;8.756;2023-04-06T03:00:11;4.10;99.90
17172;DHT22;8701;50.150;8.756;2023-04-06T03:04:17;4.10;99.90
17172;DHT22;8701;50.150;8.756;2023-04-06T03:08:20;4.10;99.90
17172;DHT22;8701;50.150;8.756;2023-04-06T03:12:25;4.10;99.90
17172;DHT22;8701;50.150;8.756;2023-04-06T03:16:46;4.00;99.90
17172;DHT22;8701;50.150;8.756;2023-04-06T03:20:54;4.00;99.90
17172;DHT22;8701;50.150;8.756;2023-04-06T03:25:03;4.00;99.90
17172;DHT22;8701;50.150;8.756;2023-04-06T03:29:07;4.00;99.90
17172;DHT22;8701;50.150;8.756;2023-04-06T03:33:10;4.00;99.90
17172;DHT22;8701;50.150;8.756;2023-04-06T03:37:24;4.00;99.90
17172;DHT22;8701;50.150;8.756;2023-04-06T03:41:31;3.90;99.90
17172;DHT22;8701;50.150;8.756;2023-04-06T03:45:53;3.90;99.90
17172;DHT22;8701;50.150;8.756;2023-04-06T03:49:56;3.70;99.90
17172;DHT22;8701;50.150;8.756;2023-04-06T03:54:00;3.80;99.90
17172;DHT22;8701;50.150;8.756;2023-04-06T03:58:03;3.80;99.90
17172;DHT22;8701;50.150;8.756;2023-04-06T04:02:06;3.70;99.90
17172;DHT22;8701;50.150;8.756;2023-04-06T04:06:08;3.60;99.90
17172;DHT22;8701;50.150;8.756;2023-04-06T04:10:12;3.50;99.90
17172;DHT22;8701;50.150;8.756;2023-04-06T04:14:14;3.50;99.90
17172;DHT22;8701;50.150;8.756;2023-04-06T04:18:17;3.50;99.90
17172;DHT22;8701;50.150;8.756;2023-04-06T04:22:19;3.50;99.90
17172;DHT22;8701;50.150;8.756;2023-04-06T04:26:23;3.50;99.90
17172;DHT22;8701;50.150;8.756;2023-04-06T04:30:26;3.40;99.90
17172;DHT22;8701;50.150;8.756;2023-04-06T04:34:28;3.40;99.90
17172;DHT22;8701;50.150;8.756;2023-04-06T04:38:31;3.30;99.90
17172;DHT22;8701;50.150;8.756;2023-04-06T04:42:35;3.30;99.90
17172;DHT22;8701;50.150;8.756;2023-04-06T04:46:40;3.30;99.90
17172;DHT22;8701;50.150;8.756;2023-04-06T04:50:44;3.30;99.90
17172;DHT22;8701;50.150;8.756;2023-04-06T04:54:48;3.20;99.90
17172;DHT22;8701;50.150;8.756;2023-04-06T04:58:59;3.20;99.90
17172;DHT22;8701;50.150;8.756;2023-04-06T05:03:05;3.20;99.90
17172;DHT22;8701;50.150;8.756;2023-04-06T05:07:11;3.40;99.90
17172;DHT22;8701;50.150;8.756;2023-04-06T05:11:15;3.30;99.90
17172;DHT22;8701;50.150;8.756;2023-04-06T05:15:24;3.30;99.90
17172;DHT22;8701;50.150;8.756;2023-04-06T05:19:31;3.20;99.90
17172;DHT22;8701;50.150;8.756;2023-04-06T05:23:35;3.30;99.90
17172;DHT22;8701;50.150;8.756;2023-04-06T05:27:38;3.30;99.90
17172;DHT22;8701;50.150;8.756;2023-04-06T05:31:52;3.40;99.90
17172;DHT22;8701;50.150;8.756;2023-04-06T05:35:54;3.20;99.90
17172;DHT22;8701;50.150;8.756;2023-04-06T05:39:58;3.20;99.90
17172;DHT22;8701;50.150;8.756;2023-04-06T05:44:00;3.20;99.90
17172;DHT22;8701;50.150;8.756;2023-04-06T05:48:06;3.20;99.90
17172;DHT22;8701;50.150;8.756;2023-04-06T05:52:08;3.30;99.90
17172;DHT22;8701;50.150;8.756;2023-04-06T05:56:12;3.50;99.90
17172;DHT22;8701;50.150;8.756;2023-04-06T06:00:15;3.70;99.90
17172;DHT22;8701;50.150;8.756;2023-04-06T06:04:32;3.90;99.90
17172;DHT22;8701;50.150;8.756;2023-04-06T06:08:35;3.90;99.90
17172;DHT22;8701;50.150;8.756;2023-04-06T06:12:44;4.00;99.90
17172;DHT22;8701;50.150;8.756;2023-04-06T06:16:47;4.20;99.90
17172;DHT22;8701;50.150;8.756;2023-04-06T06:20:52;4.10;99.90
17172;DHT22;8701;50.150;8.756;2023-04-06T06:24:55;4.20;99.90
17172;DHT22;8701;50.150;8.756;2023-04-06T06:28:59;4.30;99.90
17172;DHT22;8701;50.150;8.756;2023-04-06T06:33:02;4.40;99.90
17172;DHT22;8701;50.150;8.756;2023-04-06T06:37:07;4.40;99.90
17172;DHT22;8701;50.150;8.756;2023-04-06T06:41:12;4.50;99.90
17172;DHT22;8701;50.150;8.756;2023-04-06T06:45:14;4.70;99.90
17172;DHT22;8701;50.150;8.756;2023-04-06T06:49:17;4.60;99.90
17172;DHT22;8701;50.150;8.756;2023-04-06T06:53:20;4.60;99.90
17172;DHT22;8701;50.150;8.756;2023-04-06T06:57:23;4.70;99.90
17172;DHT22;8701;50.150;8.756;2023-04-06T07:01:26;5.00;99.90
17172;DHT22;8701;50.150;8.756;2023-04-06T07:05:30;5.20;99.90
17172;DHT22;8701;50.150;8.756;2023-04-06T07:09:35;5.30;99.90
17172;DHT22;8701;50.150;8.756;2023-04-06T07:13:37;5.50;99.90
17172;DHT22;8701;50.150;8.756;2023-04-06T07:17:40;5.60;99.90
17172;DHT22;8701;50.150;8.756;2023-04-06T07:21:44;5.80;99.90
17172;DHT22;8701;50.150;8.756;2023-04-06T07:25:48;6.00;99.90
17172;DHT22;8701;50.150;8.756;2023-04-06T07:29:52;6.10;99.90
17172;DHT22;8701;50.150;8.756;2023-04-06T07:33:55;6.20;99.90
17172;DHT22;8701;50.150;8.756;2023-04-06T07:37:58;6.40;99.90
17172;DHT22;8701;50.150;8.756;2023-04-06T07:42:02;6.60;99.90
17172;DHT22;8701;50.150;8.756;2023-04-06T07:46:04;6.80;99.90
17172;DHT22;8701;50.150;8.756;2023-04-06T07:50:08;7.10;99.90
17172;DHT22;8701;50.150;8.756;2023-04-06T07:54:10;7.60;99.90
17172;DHT22;8701;50.150;8.756;2023-04-06T07:58:14;8.70;99.90
17172;DHT22;8701;50.150;8.756;2023-04-06T08:02:17;11.10;99.90
17172;DHT22;8701;50.150;8.756;2023-04-06T08:06:19;13.20;94.90
17172;DHT22;8701;50.150;8.756;2023-04-06T08:10:21;14.10;90.40
17172;DHT22;8701;50.150;8.756;2023-04-06T08:14:25;14.60;84.00
17172;DHT22;8701;50.150;8.756;2023-04-06T08:18:28;15.10;79.60
17172;DHT22;8701;50.150;8.756;2023-04-06T08:22:31;15.60;76.10
17172;DHT22;8701;50.150;8.756;2023-04-06T08:26:33;16.20;74.80
17172;DHT22;8701;50.150;8.756;2023-04-06T08:30:38;16.80;71.90
17172;DHT22;8701;50.150;8.756;2023-04-06T08:34:41;17.40;68.10
17172;DHT22;8701;50.150;8.756;2023-04-06T08:38:43;17.90;65.60
17172;DHT22;8701;50.150;8.756;2023-04-06T08:42:50;18.70;63.90
17172;DHT22;8701;50.150;8.756;2023-04-06T08:46:55;19.40;63.20
17172;DHT22;8701;50.150;8.756;2023-04-06T08:50:59;20.50;61.40
17172;DHT22;8701;50.150;8.756;2023-04-06T08:55:01;21.30;59.60
17172;DHT22;8701;50.150;8.756;2023-04-06T08:59:05;21.40;55.40
17172;DHT22;8701;50.150;8.756;2023-04-06T09:03:11;21.30;55.40
17172;DHT22;8701;50.150;8.756;2023-04-06T09:07:15;21.20;54.70
17172;DHT22;8701;50.150;8.756;2023-04-06T09:11:17;21.90;53.80
17172;DHT22;8701;50.150;8.756;2023-04-06T09:15:21;22.10;52.80
17172;DHT22;8701;50.150;8.756;2023-04-06T09:19:25;22.60;53.20
17172;DHT22;8701;50.150;8.756;2023-04-06T09:23:27;23.10;53.40
17172;DHT22;8701;50.150;8.756;2023-04-06T09:27:30;24.00;53.20
17172;DHT22;8701;50.150;8.756;2023-04-06T09:31:33;23.70;50.40
17172;DHT22;8701;50.150;8.756;2023-04-06T09:35:37;23.70;52.10
17172;DHT22;8701;50.150;8.756;2023-04-06T09:39:39;24.00;50.60
17172;DHT22;8701;50.150;8.756;2023-04-06T09:43:41;24.30;49.50
17172;DHT22;8701;50.150;8.756;2023-04-06T09:47:45;24.70;50.20
17172;DHT22;8701;50.150;8.756;2023-04-06T09:51:53;25.20;48.30
17172;DHT22;8701;50.150;8.756;2023-04-06T09:56:00;25.40;48.90
17172;DHT22;8701;50.150;8.756;2023-04-06T10:00:05;25.50;47.70
17172;DHT22;8701;50.150;8.756;2023-04-06T10:04:20;25.10;47.90
17172;DHT22;8701;50.150;8.756;2023-04-06T10:08:27;24.90;47.70
17172;DHT22;8701;50.150;8.756;2023-04-06T10:12:30;24.60;48.00
17172;DHT22;8701;50.150;8.756;2023-04-06T10:16:32;24.40;48.30
17172;DHT22;8701;50.150;8.756;2023-04-06T10:20:39;25.00;48.80
17172;DHT22;8701;50.150;8.756;2023-04-06T10:24:45;25.30;49.40
17172;DHT22;8701;50.150;8.756;2023-04-06T10:28:49;25.70;46.90
17172;DHT22;8701;50.150;8.756;2023-04-06T10:32:52;25.80;47.00
17172;DHT22;8701;50.150;8.756;2023-04-06T10:36:54;26.00;46.70
17172;DHT22;8701;50.150;8.756;2023-04-06T10:41:03;26.10;48.60
17172;DHT22;8701;50.150;8.756;2023-04-06T10:45:07;26.20;46.50
17172;DHT22;8701;50.150;8.756;2023-04-06T10:49:10;26.20;46.30
17172;DHT22;8701;50.150;8.756;2023-04-06T10:53:21;26.20;45.40
17172;DHT22;8701;50.150;8.756;2023-04-06T10:57:29;25.60;45.90
17172;DHT22;8701;50.150;8.756;2023-04-06T11:01:34;25.40;46.30
17172;DHT22;8701;50.150;8.756;2023-04-06T11:05:36;25.70;45.60
17172;DHT22;8701;50.150;8.756;2023-04-06T11:09:39;26.50;45.30
17172;DHT22;8701;50.150;8.756;2023-04-06T11:13:44;26.00;45.50
17172;DHT22;8701;50.150;8.756;2023-04-06T11:17:47;25.80;45.00
17172;DHT22;8701;50.150;8.756;2023-04-06T11:21:50;26.30;46.10
17172;DHT22;8701;50.150;8.756;2023-04-06T11:25:54;25.90;46.20
17172;DHT22;8701;50.150;8.756;2023-04-06T11:29:58;25.70;45.70
17172;DHT22;8701;50.150;8.756;2023-04-06T11:34:01;25.00;45.60
17172;DHT22;8701;50.150;8.756;2023-04-06T11:38:10;25.10;45.10
17172;DHT22;8701;50.150;8.756;2023-04-06T11:42:13;25.10;45.90
17172;DHT22;8701;50.150;8.756;2023-04-06T11:46:26;25.30;45.40
17172;DHT22;8701;50.150;8.756;2023-04-06T11:50:32;26.60;45.20
17172;DHT22;8701;50.150;8.756;2023-04-06T11:54:36;26.30;44.00
17172;DHT22;8701;50.150;8.756;2023-04-06T11:58:38;25.70;44.50
17172;DHT22;8701;50.150;8.756;2023-04-06T12:02:45;25.70;44.80
17172;DHT22;8701;50.150;8.756;2023-04-06T12:06:48;25.30;47.00
17172;DHT22;8701;50.150;8.756;2023-04-06T12:10:50;25.00;47.00
17172;DHT22;8701;50.150;8.756;2023-04-06T12:14:53;24.40;47.00
17172;DHT22;8701;50.150;8.756;2023-04-06T12:18:57;24.00;46.70
17172;DHT22;8701;50.150;8.756;2023-04-06T12:22:59;23.50;46.40
17172;DHT22;8701;50.150;8.756;2023-04-06T12:27:02;22.70;48.10
17172;DHT22;8701;50.150;8.756;2023-04-06T12:31:04;22.10;47.70
17172;DHT22;8701;50.150;8.756;2023-04-06T12:35:09;21.30;47.80
17172;DHT22;8701;50.150;8.756;2023-04-06T12:39:12;21.10;49.40
17172;DHT22;8701;50.150;8.756;2023-04-06T12:43:15;21.00;49.10
17172;DHT22;8701;50.150;8.756;2023-04-06T12:47:17;21.00;50.00
17172;DHT22;8701;50.150;8.756;2023-04-06T12:51:21;21.00;49.70
17172;DHT22;8701;50.150;8.756;2023-04-06T12:55:23;20.90;49.30
17172;DHT22;8701;50.150;8.756;2023-04-06T12:59:26;21.20;48.80
17172;DHT22;8701;50.150;8.756;2023-04-06T13:03:29;21.30;48.30
17172;DHT22;8701;50.150;8.756;2023-04-06T13:07:33;21.00;46.90
17172;DHT22;8701;50.150;8.756;2023-04-06T13:11:35;21.00;46.60
17172;DHT22;8701;50.150;8.756;2023-04-06T13:15:37;20.50;49.80
17172;DHT22;8701;50.150;8.756;2023-04-06T13:19:40;20.00;46.70
17172;DHT22;8701;50.150;8.756;2023-04-06T13:23:44;19.70;49.10
17172;DHT22;8701;50.150;8.756;2023-04-06T13:27:46;19.60;48.60
17172;DHT22;8701;50.150;8.756;2023-04-06T13:31:49;19.30;48.60
17172;DHT22;8701;50.150;8.756;2023-04-06T13:35:52;19.30;48.20
17172;DHT22;8701;50.150;8.756;2023-04-06T13:39:56;19.10;50.90
17172;DHT22;8701;50.150;8.756;2023-04-06T13:43:59;18.90;48.60
17172;DHT22;8701;50.150;8.756;2023-04-06T13:48:01;18.90;50.40
17172;DHT22;8701;50.150;8.756;2023-04-06T13:52:03;18.80;49.00
17172;DHT22;8701;50.150;8.756;2023-04-06T13:56:08;18.80;52.50
17172;DHT22;8701;50.150;8.756;2023-04-06T14:00:11;18.80;50.70
17172;DHT22;8701;50.150;8.756;2023-04-06T14:04:15;18.80;49.10
17172;DHT22;8701;50.150;8.756;2023-04-06T14:08:17;18.90;49.80
17172;DHT22;8701;50.150;8.756;2023-04-06T14:12:21;18.70;49.50
17172;DHT22;8701;50.150;8.756;2023-04-06T14:16:24;18.70;51.10
17172;DHT22;8701;50.150;8.756;2023-04-06T14:20:26;18.90;52.90
17172;DHT22;8701;50.150;8.756;2023-04-06T14:24:28;19.10;51.40
17172;DHT22;8701;50.150;8.756;2023-04-06T14:28:32;18.80;51.20
17172;DHT22;8701;50.150;8.756;2023-04-06T14:32:35;18.40;50.30
17172;DHT22;8701;50.150;8.756;2023-04-06T14:36:38;18.20;53.80
17172;DHT22;8701;50.150;8.756;2023-04-06T14:40:40;18.00;53.00
17172;DHT22;8701;50.150;8.756;2023-04-06T14:44:44;17.60;53.80
17172;DHT22;8701;50.150;8.756;2023-04-06T14:48:46;17.60;53.40
17172;DHT22;8701;50.150;8.756;2023-04-06T14:52:49;17.20;50.30
17172;DHT22;8701;50.150;8.756;2023-04-06T14:56:51;17.10;51.80
17172;DHT22;8701;50.150;8.756;2023-04-06T15:00:57;17.10;51.20
17172;DHT22;8701;50.150;8.756;2023-04-06T15:04:59;17.10;52.40
17172;DHT22;8701;50.150;8.756;2023-04-06T15:09:02;17.00;52.20
17172;DHT22;8701;50.150;8.756;2023-04-06T15:13:04;16.80;53.00
17172;DHT22;8701;50.150;8.756;2023-04-06T15:17:08;16.80;52.80
17172;DHT22;8701;50.150;8.756;2023-04-06T15:21:10;16.60;52.00
17172;DHT22;8701;50.150;8.756;2023-04-06T15:25:12;16.40;53.30
17172;DHT22;8701;50.150;8.756;2023-04-06T15:29:14;16.50;53.60
17172;DHT22;8701;50.150;8.756;2023-04-06T15:33:19;16.50;53.50
17172;DHT22;8701;50.150;8.756;2023-04-06T15:37:22;16.60;53.80
17172;DHT22;8701;50.150;8.756;2023-04-06T15:41:25;16.70;54.20
17172;DHT22;8701;50.150;8.756;2023-04-06T15:45:28;16.40;53.90
17172;DHT22;8701;50.150;8.756;2023-04-06T15:49:31;16.10;54.20
17172;DHT22;8701;50.150;8.756;2023-04-06T15:53:34;16.20;53.80
17172;DHT22;8701;50.150;8.756;2023-04-06T15:57:37;16.10;51.80
17172;DHT22;8701;50.150;8.756;2023-04-06T16:01:39;16.00;53.50
17172;DHT22;8701;50.150;8.756;2023-04-06T16:05:43;15.80;54.60
17172;DHT22;8701;50.150;8.756;2023-04-06T16:09:46;15.80;54.20
17172;DHT22;8701;50.150;8.756;2023-04-06T16:13:48;15.70;55.20
17172;DHT22;8701;50.150;8.756;2023-04-06T16:17:51;15.60;54.20
17172;DHT22;8701;50.150;8.756;2023-04-06T16:21:55;15.40;52.30
17172;DHT22;8701;50.150;8.756;2023-04-06T16:25:57;15.30;52.20
17172;DHT22;8701;50.150;8.756;2023-04-06T16:30:00;15.20;52.90
17172;DHT22;8701;50.150;8.756;2023-04-06T16:34:02;15.30;54.20
17172;DHT22;8701;50.150;8.756;2023-04-06T16:38:06;15.10;55.30
17172;DHT22;8701;50.150;8.756;2023-04-06T16:42:08;14.80;55.80
17172;DHT22;8701;50.150;8.756;2023-04-06T16:46:11;14.70;57.20
17172;DHT22;8701;50.150;8.756;2023-04-06T16:50:13;14.60;55.80
17172;DHT22;8701;50.150;8.756;2023-04-06T16:54:16;14.60;56.30
17172;DHT22;8701;50.150;8.756;2023-04-06T16:58:19;14.50;55.20
17172;DHT22;8701;50.150;8.756;2023-04-06T17:02:22;14.40;56.10
17172;DHT22;8701;50.150;8.756;2023-04-06T17:06:24;14.50;57.00
17172;DHT22;8701;50.150;8.756;2023-04-06T17:10:29;14.40;56.30
17172;DHT22;8701;50.150;8.756;2023-04-06T17:14:31;14.30;55.90
17172;DHT22;8701;50.150;8.756;2023-04-06T17:18:33;14.00;55.20
17172;DHT22;8701;50.150;8.756;2023-04-06T17:22:36;14.00;55.80
17172;DHT22;8701;50.150;8.756;2023-04-06T17:26:39;14.00;55.60
17172;DHT22;8701;50.150;8.756;2023-04-06T17:30:41;13.90;56.30
17172;DHT22;8701;50.150;8.756;2023-04-06T17:34:44;13.80;56.60
17172;DHT22;8701;50.150;8.756;2023-04-06T17:38:46;13.80;58.40
17172;DHT22;8701;50.150;8.756;2023-04-06T17:42:50;13.80;56.70
17172;DHT22;8701;50.150;8.756;2023-04-06T17:46:52;13.80;58.70
17172;DHT22;8701;50.150;8.756;2023-04-06T17:50:55;13.70;60.10
17172;DHT22;8701;50.150;8.756;2023-04-06T17:54:57;13.60;58.20
17172;DHT22;8701;50.150;8.756;2023-04-06T17:59:01;13.60;59.20
17172;DHT22;8701;50.150;8.756;2023-04-06T18:03:07;13.60;61.60
17172;DHT22;8701;50.150;8.756;2023-04-06T18:07:09;13.60;61.90
17172;DHT22;8701;50.150;8.756;2023-04-06T18:11:16;13.50;60.30
17172;DHT22;8701;50.150;8.756;2023-04-06T18:15:20;13.20;60.40
17172;DHT22;8701;50.150;8.756;2023-04-06T18:19:22;13.20;64.90
17172;DHT22;8701;50.150;8.756;2023-04-06T18:23:24;13.20;63.30
17172;DHT22;8701;50.150;8.756;2023-04-06T18:27:26;13.20;63.80
17172;DHT22;8701;50.150;8.756;2023-04-06T18:31:30;13.10;64.70
17172;DHT22;8701;50.150;8.756;2023-04-06T18:35:32;13.00;68.00
17172;DHT22;8701;50.150;8.756;2023-04-06T18:39:35;13.00;66.20
17172;DHT22;8701;50.150;8.756;2023-04-06T18:43:37;12.90;67.50
17172;DHT22;8701;50.150;8.756;2023-04-06T18:47:41;12.80;68.20
17172;DHT22;8701;50.150;8.756;2023-04-06T18:51:43;12.70;70.30
17172;DHT22;8701;50.150;8.756;2023-04-06T18:55:46;12.70;72.10
17172;DHT22;8701;50.150;8.756;2023-04-06T18:59:48;12.80;72.70
17172;DHT22;8701;50.150;8.756;2023-04-06T19:03:52;12.60;73.80
17172;DHT22;8701;50.150;8.756;2023-04-06T19:07:54;12.60;74.50
17172;DHT22;8701;50.150;8.756;2023-04-06T19:11:57;12.50;78.50
17172;DHT22;8701;50.150;8.756;2023-04-06T19:15:59;12.40;81.40
17172;DHT22;8701;50.150;8.756;2023-04-06T19:20:03;12.30;85.80
17172;DHT22;8701;50.150;8.756;2023-04-06T19:24:06;12.20;89.70
17172;DHT22;8701;50.150;8.756;2023-04-06T19:28:08;12.10;93.40
17172;DHT22;8701;50.150;8.756;2023-04-06T19:32:10;12.20;94.20
17172;DHT22;8701;50.150;8.756;2023-04-06T19:36:14;12.00;98.20
17172;DHT22;8701;50.150;8.756;2023-04-06T19:40:16;11.90;99.90
17172;DHT22;8701;50.150;8.756;2023-04-06T19:44:19;11.90;99.90
17172;DHT22;8701;50.150;8.756;2023-04-06T19:48:21;11.90;99.90
17172;DHT22;8701;50.150;8.756;2023-04-06T19:52:24;11.90;99.90
17172;DHT22;8701;50.150;8.756;2023-04-06T19:56:28;11.70;99.90
17172;DHT22;8701;50.150;8.756;2023-04-06T20:00:31;11.70;99.90
17172;DHT22;8701;50.150;8.756;2023-04-06T20:04:33;11.70;99.90
17172;DHT22;8701;50.150;8.756;2023-04-06T20:08:37;11.60;99.90
17172;DHT22;8701;50.150;8.756;2023-04-06T20:12:40;11.50;99.90
17172;DHT22;8701;50.150;8.756;2023-04-06T20:16:42;11.50;99.90
17172;DHT22;8701;50.150;8.756;2023-04-06T20:20:45;11.40;99.90
17172;DHT22;8701;50.150;8.756;2023-04-06T20:24:48;11.20;99.90
17172;DHT22;8701;50.150;8.756;2023-04-06T20:28:50;11.20;99.90
17172;DHT22;8701;50.150;8.756;2023-04-06T20:32:53;11.20;99.90
17172;DHT22;8701;50.150;8.756;2023-04-06T20:36:55;11.20;99.90
17172;DHT22;8701;50.150;8.756;2023-04-06T20:41:01;11.20;99.90
17172;DHT22;8701;50.150;8.756;2023-04-06T20:45:04;11.00;99.90
17172;DHT22;8701;50.150;8.756;2023-04-06T20:49:07;11.00;99.90
17172;DHT22;8701;50.150;8.756;2023-04-06T20:53:09;11.00;99.90
17172;DHT22;8701;50.150;8.756;2023-04-06T20:57:13;10.90;99.90
17172;DHT22;8701;50.150;8.756;2023-04-06T21:01:16;10.90;99.90
17172;DHT22;8701;50.150;8.756;2023-04-06T21:05:18;10.80;99.90
17172;DHT22;8701;50.150;8.756;2023-04-06T21:09:21;10.70;99.90
17172;DHT22;8701;50.150;8.756;2023-04-06T21:13:26;10.60;99.90
17172;DHT22;8701;50.150;8.756;2023-04-06T21:17:28;10.50;99.90
17172;DHT22;8701;50.150;8.756;2023-04-06T21:21:31;10.50;99.90
17172;DHT22;8701;50.150;8.756;2023-04-06T21:25:35;10.50;99.90
17172;DHT22;8701;50.150;8.756;2023-04-06T21:29:39;10.50;99.90
17172;DHT22;8701;50.150;8.756;2023-04-06T21:33:41;10.20;99.90
17172;DHT22;8701;50.150;8.756;2023-04-06T21:37:44;10.20;99.90
17172;DHT22;8701;50.150;8.756;2023-04-06T21:41:46;10.10;99.90
17172;DHT22;8701;50.150;8.756;2023-04-06T21:45:50;10.20;99.90
17172;DHT22;8701;50.150;8.756;2023-04-06T21:49:52;10.10;99.90
17172;DHT22;8701;50.150;8.756;2023-04-06T21:53:55;10.10;99.90
17172;DHT22;8701;50.150;8.756;2023-04-06T21:57:57;10.10;99.90
17172;DHT22;8701;50.150;8.756;2023-04-06T22:02:01;10.10;99.90
17172;DHT22;8701;50.150;8.756;2023-04-06T22:06:03;10.10;99.90
17172;DHT22;8701;50.150;8.756;2023-04-06T22:10:07;10.00;99.90
17172;DHT22;8701;50.150;8.756;2023-04-06T22:14:09;10.00;99.90
17172;DHT22;8701;50.150;8.756;2023-04-06T22:18:14;9.90;99.90
17172;DHT22;8701;50.150;8.756;2023-04-06T22:22:16;9.80;99.90
17172;DHT22;8701;50.150;8.756;2023-04-06T22:26:18;9.80;99.90
17172;DHT22;8701;50.150;8.756;2023-04-06T22:30:20;9.80;99.90
17172;DHT22;8701;50.150;8.756;2023-04-06T22:34:24;9.70;99.90
17172;DHT22;8701;50.150;8.756;2023-04-06T22:38:26;9.70;99.90
17172;DHT22;8701;50.150;8.756;2023-04-06T22:42:28;9.70;99.90
17172;DHT22;8701;50.150;8.756;2023-04-06T22:46:31;9.80;99.90
17172;DHT22;8701;50.150;8.756;2023-04-06T22:50:34;9.80;99.90
17172;DHT22;8701;50.150;8.756;2023-04-06T22:54:37;9.80;99.90
17172;DHT22;8701;50.150;8.756;2023-04-06T22:58:39;9.80;99.90
17172;DHT22;8701;50.150;8.756;2023-04-06T23:02:41;9.90;99.90
17172;DHT22;8701;50.150;8.756;2023-04-06T23:06:45;9.90;99.90
17172;DHT22;8701;50.150;8.756;2023-04-06T23:10:48;9.90;99.90
17172;DHT22;8701;50.150;8.756;2023-04-06T23:14:50;9.90;99.90
17172;DHT22;8701;50.150;8.756;2023-04-06T23:18:53;9.90;99.90
17172;DHT22;8701;50.150;8.756;2023-04-06T23:22:57;9.90;99.90
17172;DHT22;8701;50.150;8.756;2023-04-06T23:26:59;9.80;99.90
17172;DHT22;8701;50.150;8.756;2023-04-06T23:31:01;9.70;99.90
17172;DHT22;8701;50.150;8.756;2023-04-06T23:35:04;9.60;99.90
17172;DHT22;8701;50.150;8.756;2023-04-06T23:39:08;9.70;99.90
17172;DHT22;8701;50.150;8.756;2023-04-06T23:43:10;9.70;99.90
17172;DHT22;8701;50.150;8.756;2023-04-06T23:47:12;9.70;99.90
17172;DHT22;8701;50.150;8.756;2023-04-06T23:51:14;9.70;99.90
17172;DHT22;8701;50.150;8.756;2023-04-06T23:55:18;9.90;99.90
17172;DHT22;8701;50.150;8.756;2023-04-06T23:59:20;9.60;99.90
